Terminal Aerodrome Forecast
Issued by NWS

Home | Current Version | Previous Version | Text Only | Print | Product List | Glossary On
Versions: 1 2 3 4 5 6 7 8 9 10 11 12
000
FTUS45 KABQ 230540
TAFGUP
TAF
KGUP 230540Z 2306/2406 20005KT P6SM FEW100
     FM230800 19008KT P6SM BKN070
     FM231600 22015G25KT P6SM VCSH BKN050
     FM232000 23024G32KT P6SM BKN080
     FM240100 24014KT P6SM SKC=

USA.gov is the U.S. government's official web portal to all federal, state and local government web resources and services.